ESNU/UME METAR and TAF weather

Enter ICAO airport designator
Station Type Date Time Source
ESNU METAR 2020/01/20 15:50 UTC NOAA

ESNU 201550Z 21009KT 9999 OVC064 05/03 Q1006 R14/71//50


Station Type Date Time Source
ESNU Decoded METAR 2020/01/20 15:50 UTC NOAA

Umea Flygplats, Sweden (ESNU) 63-48N 020-17E 14M
Jan 20, 2020 - 10:50 AM EST / 2020.01.20 1550 UTC
Wind: from the SSW (210 degrees) at 10 MPH (9 KT):0
Visibility: greater than 7 mile(s):0
Sky conditions: overcast
Temperature: 41 F (5 C)
Dew Point: 37 F (3 C)
Relative Humidity: 86%
Pressure (altimeter): 29.71 in. Hg (1006 hPa)
ob: ESNU 201550Z 21009KT 9999 OVC064 05/03 Q1006 R14/71//50
cycle: 16

Station Type Date Time Source
ESNU TAF 2019/10/24 00:55 UTC NOAA

TAF
AMD ESNU 242348Z 2500/2524 16003KT 0200 FG VV002 PROB40 2500/2509 8000 -RA BKN005

Example: see airport list